KDAL/DAL METAR and TAF weather

Enter ICAO airport designator
Station Type Date Time Source
KDAL METAR 2022/01/26 07:53 UTC NOAA

KDAL 260753Z VRB06KT 10SM CLR 02/M09 A3034 RMK AO2 SLP274 T00221094


Station Type Date Time Source
KDAL Decoded METAR 2022/01/26 07:53 UTC NOAA

DALLAS LOVE FIELD, TX, United States (KDAL) 32-51N 096-51W 158M
Jan 26, 2022 - 02:53 AM EST / 2022.01.26 0753 UTC
Wind: Variable at 7 MPH (6 KT):0
Visibility: 10 mile(s):0
Sky conditions: clear
Temperature: 36.0 F (2.2 C)
Dew Point: 15.1 F (-9.4 C)
Relative Humidity: 41%
Pressure (altimeter): 30.34 in. Hg (1027 hPa)
ob: KDAL 260753Z VRB06KT 10SM CLR 02/M09 A3034 RMK AO2 SLP274 T00221094
cycle: 8

Station Type Date Time Source
KDAL TAF 2022/01/26 06:30 UTC NOAA

TAF KDAL 260529Z 2606/2706 02013KT P6SM FEW250
FM261700 08009KT P6SM SCT160
FM262300 07006KT P6SM BKN120
FM270300 VRB04KT P6SM VCSH BKN070 OVC100

Example: see airport list